KMFE/MFE METAR and TAF weather

Enter ICAO airport designator
Station Type Date Time Source
KMFE METAR 2022/06/28 08:53 UTC NOAA

KMFE 280853Z AUTO 17003KT 10SM CLR 26/23 A3003 RMK AO2 SLP169 T02610233 58019


Station Type Date Time Source
KMFE Decoded METAR 2022/06/28 08:53 UTC NOAA

MCALLEN MILLER INTERNATIONAL AIRPORT , TX, United States (KMFE) 26-11N 98-15W 38M
Jun 28, 2022 - 04:53 AM EDT / 2022.06.28 0853 UTC
Wind: from the S (170 degrees) at 3 MPH (3 KT):0
Visibility: 10 mile(s):0
Sky conditions: clear
Temperature: 79.0 F (26.1 C)
Dew Point: 73.9 F (23.3 C)
Relative Humidity: 84%
Pressure (altimeter): 30.03 in. Hg (1016 hPa)
Pressure tendency: 0.06 inches (1.9 hPa) lower than three hours ago
ob: KMFE 280853Z AUTO 17003KT 10SM CLR 26/23 A3003 RMK AO2 SLP169 T02610233 58019
cycle: 9

Station Type Date Time Source
KMFE TAF 2022/06/28 06:39 UTC NOAA

TAF KMFE 280537Z 2806/2906 VRB04KT P6SM BKN120
FM281900 06010G16KT P6SM BKN100 PROB30 2820/2824 4SM -SHRA OVC025
FM290000 07007KT P6SM BKN250

Example: see airport list